createdAt,value
2023-12-14T00:00:33.804Z,68.90
2023-12-14T00:03:02.050Z,68.65
2023-12-14T00:05:29.841Z,68.76
2023-12-14T00:07:57.653Z,69.16
2023-12-14T00:10:25.984Z,68.61
2023-12-14T00:12:56.438Z,69.07
2023-12-14T00:15:24.349Z,69.05
2023-12-14T00:17:52.453Z,68.69
2023-12-14T00:20:20.612Z,68.95
2023-12-14T00:22:48.498Z,68.86
2023-12-14T00:25:16.676Z,68.73
2023-12-14T00:27:44.562Z,68.73
2023-12-14T00:30:14.984Z,69.24
2023-12-14T00:32:42.809Z,68.96
2023-12-14T00:35:10.717Z,69.11
2023-12-14T00:37:38.961Z,69.07
2023-12-14T00:40:08.051Z,68.78
2023-12-14T00:42:36.116Z,68.74
2023-12-14T00:45:04.352Z,68.66
2023-12-14T00:47:33.521Z,68.99
2023-12-14T00:50:01.456Z,69.13
2023-12-14T00:52:29.609Z,68.92
2023-12-14T00:54:57.472Z,68.92
2023-12-14T00:57:25.371Z,68.15
2023-12-14T00:59:53.598Z,68.54
2023-12-14T01:02:21.485Z,69.15
2023-12-14T01:04:50.713Z,68.50
2023-12-14T01:07:18.794Z,68.93
2023-12-14T01:09:46.626Z,68.57
2023-12-14T01:12:14.417Z,68.87
2023-12-14T01:14:42.425Z,68.81
2023-12-14T01:17:10.412Z,68.52
2023-12-14T01:19:41.971Z,68.80
2023-12-14T01:22:11.427Z,68.27
2023-12-14T01:24:39.239Z,68.76
2023-12-14T01:27:07.176Z,68.32
2023-12-14T01:29:35.363Z,68.17
2023-12-14T01:32:03.204Z,68.91
2023-12-14T01:34:31.143Z,68.46
2023-12-14T01:36:59.402Z,68.53
2023-12-14T01:39:28.564Z,68.55
2023-12-14T01:41:56.389Z,68.80
2023-12-14T01:44:24.500Z,68.94
2023-12-14T01:46:52.432Z,68.20
2023-12-14T01:49:20.281Z,68.80
2023-12-14T01:51:48.304Z,68.43
2023-12-14T01:54:16.096Z,68.43
2023-12-14T01:56:45.405Z,68.28
2023-12-14T01:59:13.303Z,68.85
2023-12-14T02:01:44.399Z,68.65
2023-12-14T02:04:13.334Z,68.42
2023-12-14T02:06:41.483Z,67.93
2023-12-14T02:09:09.350Z,67.81
2023-12-14T02:11:37.495Z,68.07
2023-12-14T02:14:08.002Z,67.82
2023-12-14T02:16:35.885Z,67.52
2023-12-14T02:19:03.771Z,67.89
2023-12-14T02:21:31.876Z,67.99
2023-12-14T02:24:01.088Z,67.78
2023-12-14T02:26:28.923Z,67.62
2023-12-14T02:28:57.056Z,67.21
2023-12-14T02:31:25.349Z,67.47
2023-12-14T02:33:53.290Z,67.70
2023-12-14T02:36:21.336Z,67.41
2023-12-14T02:38:49.349Z,67.53
2023-12-14T02:41:18.767Z,67.79
2023-12-14T02:43:46.830Z,67.84
2023-12-14T02:46:16.576Z,67.55
2023-12-14T02:48:44.836Z,67.35
2023-12-14T02:51:15.967Z,67.53
2023-12-14T02:53:44.651Z,68.41
2023-12-14T02:56:13.256Z,68.01
2023-12-14T02:58:42.777Z,68.20
2023-12-14T03:01:10.672Z,67.78
2023-12-14T03:03:41.045Z,67.56
2023-12-14T03:06:09.540Z,67.71
2023-12-14T03:08:37.436Z,67.98
2023-12-14T03:11:05.645Z,67.82
2023-12-14T03:13:33.810Z,67.79
2023-12-14T03:16:03.215Z,68.02
2023-12-14T03:18:31.077Z,67.63
2023-12-14T03:20:59.134Z,67.77
2023-12-14T03:23:26.920Z,67.55
2023-12-14T03:25:54.797Z,67.66
2023-12-14T03:28:22.654Z,67.66
2023-12-14T03:30:50.528Z,67.75
2023-12-14T03:33:19.750Z,67.78
2023-12-14T03:35:48.002Z,67.57
2023-12-14T03:38:16.160Z,67.67
2023-12-14T03:40:44.117Z,67.48
2023-12-14T03:43:12.686Z,67.63
2023-12-14T03:45:40.667Z,67.39
2023-12-14T03:48:08.545Z,67.22
2023-12-14T03:50:38.371Z,66.87
2023-12-14T03:53:06.259Z,66.87
2023-12-14T03:55:34.492Z,66.94
2023-12-14T03:58:02.703Z,67.15
2023-12-14T04:00:30.605Z,67.09
2023-12-14T04:02:58.521Z,66.93
2023-12-14T04:05:26.747Z,66.53
2023-12-14T04:07:56.015Z,66.55
2023-12-14T04:10:23.829Z,66.44
2023-12-14T04:12:51.884Z,66.53
2023-12-14T04:15:19.862Z,66.71
2023-12-14T04:17:47.815Z,66.37
2023-12-14T04:20:17.285Z,67.05
2023-12-14T04:22:45.819Z,66.25
2023-12-14T04:25:15.334Z,66.18
2023-12-14T04:27:43.443Z,66.13
2023-12-14T04:30:12.933Z,66.31
2023-12-14T04:32:41.087Z,66.36
2023-12-14T04:35:10.373Z,66.37
2023-12-14T04:37:38.381Z,66.36
2023-12-14T04:40:07.468Z,66.15
2023-12-14T04:42:37.324Z,66.14
2023-12-14T04:45:06.378Z,65.87
2023-12-14T04:47:34.568Z,65.47
2023-12-14T04:50:02.578Z,65.84
2023-12-14T04:52:30.545Z,65.90
2023-12-14T04:54:58.727Z,65.57
2023-12-14T04:57:26.522Z,65.36
2023-12-14T04:59:55.715Z,65.83
2023-12-14T05:02:23.846Z,65.57
2023-12-14T05:04:51.718Z,65.67
2023-12-14T05:07:20.142Z,65.92
2023-12-14T05:09:48.270Z,65.97
2023-12-14T05:12:16.073Z,65.43
2023-12-14T05:14:43.878Z,64.95
2023-12-14T05:17:13.440Z,65.12
2023-12-14T05:19:41.362Z,65.18
2023-12-14T05:22:09.159Z,64.17
2023-12-14T05:24:37.258Z,64.42
2023-12-14T05:27:05.493Z,64.43
2023-12-14T05:29:34.551Z,64.03
2023-12-14T05:32:02.719Z,63.41
2023-12-14T05:34:32.143Z,64.08
2023-12-14T05:37:00.017Z,64.25
2023-12-14T05:39:28.036Z,63.53
2023-12-14T05:41:55.804Z,63.82
2023-12-14T05:44:23.801Z,64.42
2023-12-14T05:46:52.918Z,64.32
2023-12-14T05:49:21.014Z,64.59
2023-12-14T05:51:50.603Z,64.74
2023-12-14T05:54:18.947Z,64.30
2023-12-14T05:56:46.740Z,64.13
2023-12-14T05:59:14.581Z,63.88
2023-12-14T06:01:44.907Z,63.90
2023-12-14T06:04:12.811Z,63.31
2023-12-14T06:06:41.088Z,63.29
2023-12-14T06:09:10.764Z,63.34
2023-12-14T06:11:38.708Z,63.48
2023-12-14T06:14:06.588Z,62.97
2023-12-14T06:16:34.941Z,63.24
2023-12-14T06:19:02.924Z,63.07
2023-12-14T06:21:30.885Z,63.25
2023-12-14T06:24:00.807Z,62.70
2023-12-14T06:26:30.032Z,62.83
2023-12-14T06:28:57.834Z,63.03
2023-12-14T06:31:26.191Z,63.04
2023-12-14T06:33:55.038Z,62.99
2023-12-14T06:36:28.476Z,63.33
2023-12-14T06:38:56.323Z,63.12
2023-12-14T06:41:25.039Z,63.18
2023-12-14T06:43:55.263Z,63.06
2023-12-14T06:46:23.734Z,63.32
2023-12-14T06:48:52.043Z,62.98
2023-12-14T06:51:20.551Z,62.81
2023-12-14T06:53:49.507Z,63.08
2023-12-14T06:56:17.575Z,62.95
2023-12-14T06:58:47.531Z,63.01
2023-12-14T07:01:17.751Z,62.95
2023-12-14T07:03:46.563Z,62.92
2023-12-14T07:06:16.367Z,62.39
2023-12-14T07:08:45.443Z,62.82
2023-12-14T07:11:14.224Z,62.74
2023-12-14T07:13:42.948Z,62.43
2023-12-14T07:16:12.835Z,62.66
2023-12-14T07:18:44.409Z,62.69
2023-12-14T07:21:12.543Z,62.77
2023-12-14T07:23:40.672Z,62.88
2023-12-14T07:26:09.105Z,62.44
2023-12-14T07:28:37.133Z,61.82
2023-12-14T07:31:05.568Z,61.74
2023-12-14T07:33:33.864Z,61.26
2023-12-14T07:36:03.189Z,61.18
2023-12-14T07:38:30.949Z,61.80
2023-12-14T07:40:58.226Z,61.49
2023-12-14T07:43:26.450Z,61.65
2023-12-14T07:45:54.202Z,61.59
2023-12-14T07:48:22.593Z,61.58
2023-12-14T07:50:50.406Z,61.46
2023-12-14T07:53:19.610Z,61.74
2023-12-14T07:55:48.100Z,61.40
2023-12-14T07:58:15.979Z,61.80
2023-12-14T08:00:43.880Z,61.47
2023-12-14T08:03:12.217Z,61.70
2023-12-14T08:05:40.359Z,61.39
2023-12-14T08:08:08.458Z,61.37
2023-12-14T08:10:38.435Z,61.40
2023-12-14T08:13:06.299Z,61.13
2023-12-14T08:15:34.130Z,60.83
2023-12-14T08:18:02.614Z,60.96
2023-12-14T08:20:30.536Z,60.82
2023-12-14T08:22:58.386Z,61.15
2023-12-14T08:25:27.236Z,60.83
2023-12-14T08:27:56.426Z,60.89
2023-12-14T08:30:25.101Z,60.53
2023-12-14T08:32:53.517Z,60.52
2023-12-14T08:35:21.625Z,60.36
2023-12-14T08:37:49.849Z,60.60
2023-12-14T08:40:18.174Z,60.25
2023-12-14T08:42:46.020Z,59.71
2023-12-14T08:45:15.531Z,60.64
2023-12-14T08:47:44.746Z,60.43
2023-12-14T08:50:13.640Z,60.30
2023-12-14T08:52:41.562Z,59.88
2023-12-14T08:55:10.917Z,59.90
2023-12-14T08:57:38.745Z,59.30
2023-12-14T09:00:08.370Z,59.60
2023-12-14T09:02:38.638Z,59.81
2023-12-14T09:05:07.824Z,59.43
2023-12-14T09:07:35.716Z,59.34
2023-12-14T09:10:04.151Z,59.04
2023-12-14T09:12:32.865Z,58.60
2023-12-14T09:15:01.149Z,58.41
2023-12-14T09:17:37.282Z,58.52
2023-12-14T09:20:09.113Z,58.73
2023-12-14T09:22:37.571Z,58.79
2023-12-14T09:25:06.149Z,58.14
2023-12-14T09:27:34.431Z,58.46
2023-12-14T09:30:02.912Z,58.54
2023-12-14T09:32:31.208Z,58.64
2023-12-14T09:34:59.191Z,58.83
2023-12-14T09:37:29.042Z,58.88
2023-12-14T09:39:56.984Z,58.48
2023-12-14T09:42:25.005Z,58.60
2023-12-14T09:44:55.235Z,58.61
2023-12-14T09:47:23.109Z,58.48
2023-12-14T09:49:53.921Z,58.27
2023-12-14T09:52:22.388Z,57.99
2023-12-14T09:54:53.732Z,58.01
2023-12-14T09:57:24.424Z,58.12
2023-12-14T09:59:56.256Z,58.59
2023-12-14T10:02:28.436Z,58.05
2023-12-14T10:04:56.646Z,57.97
2023-12-14T10:07:25.054Z,58.09
2023-12-14T10:09:55.141Z,58.23
2023-12-14T10:12:24.327Z,58.04
2023-12-14T10:15:03.155Z,58.03
2023-12-14T10:17:33.945Z,58.19
2023-12-14T10:20:06.944Z,58.00
2023-12-14T10:22:34.774Z,58.30
2023-12-14T10:25:04.604Z,58.15
2023-12-14T10:27:34.585Z,58.05
2023-12-14T10:30:07.427Z,58.18
2023-12-14T10:32:36.658Z,58.24
2023-12-14T10:35:05.031Z,57.92
2023-12-14T10:37:35.301Z,57.68
2023-12-14T10:40:06.947Z,57.86
2023-12-14T10:42:38.084Z,58.53
2023-12-14T10:45:17.144Z,58.49
2023-12-14T10:47:49.185Z,58.28
2023-12-14T10:50:18.663Z,58.05
2023-12-14T10:52:47.129Z,57.90
2023-12-14T10:55:24.004Z,58.30
2023-12-14T10:57:53.991Z,57.92
2023-12-14T11:00:22.046Z,57.89
2023-12-14T11:02:50.975Z,58.04
2023-12-14T11:05:24.129Z,57.79
2023-12-14T11:07:56.229Z,57.85
2023-12-14T11:10:29.161Z,58.18
2023-12-14T11:12:59.218Z,57.40
2023-12-14T11:15:28.511Z,57.47
2023-12-14T11:18:30.014Z,57.79
2023-12-14T11:21:00.088Z,56.87
2023-12-14T11:23:40.549Z,56.89
2023-12-14T11:26:12.265Z,57.84
2023-12-14T11:28:43.944Z,57.67
2023-12-14T11:31:13.500Z,57.22
2023-12-14T11:33:44.190Z,57.40
2023-12-14T11:36:17.320Z,57.74
2023-12-14T11:38:45.926Z,57.74
2023-12-14T11:41:15.524Z,58.21
2023-12-14T11:43:43.979Z,58.66
2023-12-14T11:46:12.355Z,58.62
2023-12-14T11:48:40.509Z,58.15
2023-12-14T11:51:09.113Z,58.27
2023-12-14T11:53:39.777Z,58.21
2023-12-14T11:56:09.354Z,58.38
2023-12-14T11:58:38.619Z,58.72
2023-12-14T12:01:14.930Z,58.71
2023-12-14T12:03:43.065Z,58.31
2023-12-14T12:06:11.029Z,58.71
2023-12-14T12:08:44.871Z,58.88
2023-12-14T12:11:12.811Z,59.16
2023-12-14T12:13:41.983Z,59.21
2023-12-14T12:16:10.237Z,59.42
2023-12-14T12:18:40.847Z,59.43
2023-12-14T12:21:10.646Z,59.51
2023-12-14T12:23:38.437Z,59.85
2023-12-14T12:26:06.467Z,60.06
2023-12-14T12:28:34.840Z,60.24
2023-12-14T12:31:05.475Z,60.09
2023-12-14T12:33:39.160Z,60.11
2023-12-14T12:36:08.729Z,60.48
2023-12-14T12:38:42.039Z,60.67
2023-12-14T12:41:10.080Z,60.84
2023-12-14T12:43:38.273Z,60.86
2023-12-14T12:46:08.709Z,61.31
2023-12-14T12:48:36.865Z,61.28
2023-12-14T12:51:05.318Z,61.10
2023-12-14T12:53:34.934Z,61.54
2023-12-14T12:56:03.099Z,61.11
2023-12-14T12:58:31.368Z,61.16
2023-12-14T13:00:59.937Z,61.29
2023-12-14T13:03:29.246Z,61.39
2023-12-14T13:05:57.434Z,61.38
2023-12-14T13:08:25.452Z,61.37
2023-12-14T13:10:55.845Z,61.37
2023-12-14T13:13:24.236Z,61.62
2023-12-14T13:15:52.658Z,61.47
2023-12-14T13:18:20.732Z,61.15
2023-12-14T13:20:50.178Z,61.16
2023-12-14T13:23:18.760Z,61.12
2023-12-14T13:25:47.027Z,61.42
2023-12-14T13:28:17.662Z,61.07
2023-12-14T13:30:46.806Z,61.16
2023-12-14T13:33:15.418Z,61.49
2023-12-14T13:35:44.080Z,61.85
2023-12-14T13:38:14.104Z,61.62
2023-12-14T13:40:42.147Z,61.69
2023-12-14T13:43:11.867Z,61.46
2023-12-14T13:45:42.726Z,61.92
2023-12-14T13:48:10.922Z,61.46
2023-12-14T13:50:38.934Z,61.10
2023-12-14T13:53:07.224Z,61.35
2023-12-14T13:55:36.545Z,61.60
2023-12-14T13:58:04.420Z,61.33
2023-12-14T14:00:34.124Z,61.84
2023-12-14T14:03:01.798Z,61.60
2023-12-14T14:05:29.727Z,61.28
2023-12-14T14:07:58.025Z,61.86
2023-12-14T14:10:26.157Z,61.62
2023-12-14T14:12:55.370Z,61.96
2023-12-14T14:15:23.290Z,61.74
2023-12-14T14:17:53.576Z,61.46
2023-12-14T14:20:21.861Z,61.67
2023-12-14T14:22:49.959Z,61.55
2023-12-14T14:25:17.905Z,61.67
2023-12-14T14:27:47.908Z,61.82
2023-12-14T14:30:18.367Z,61.86
2023-12-14T14:32:46.516Z,61.71
2023-12-14T14:35:15.139Z,61.81
2023-12-14T14:37:46.934Z,61.72
2023-12-14T14:40:15.558Z,62.09
2023-12-14T14:42:43.882Z,61.51
2023-12-14T14:45:12.509Z,61.85
2023-12-14T14:47:42.218Z,61.94
2023-12-14T14:50:10.994Z,61.92
2023-12-14T14:52:39.281Z,62.00
2023-12-14T14:55:07.770Z,61.73
2023-12-14T14:57:35.921Z,61.88
2023-12-14T15:00:04.633Z,61.81
2023-12-14T15:02:32.558Z,61.76
2023-12-14T15:05:01.978Z,62.04
2023-12-14T15:07:31.656Z,61.49
2023-12-14T15:09:59.267Z,61.94
2023-12-14T15:12:28.729Z,61.32
2023-12-14T15:14:57.486Z,61.45
2023-12-14T15:17:25.669Z,61.35
2023-12-14T15:19:53.697Z,60.90
2023-12-14T15:22:22.961Z,61.30
2023-12-14T15:24:50.768Z,61.31
2023-12-14T15:27:18.572Z,61.61
2023-12-14T15:29:47.511Z,61.44
2023-12-14T15:32:16.010Z,61.25
2023-12-14T15:34:44.139Z,61.35
2023-12-14T15:37:12.201Z,61.66
2023-12-14T15:39:41.531Z,61.52
2023-12-14T15:42:09.345Z,60.55
2023-12-14T15:44:37.206Z,60.82
2023-12-14T15:47:05.338Z,60.97
2023-12-14T15:49:33.189Z,60.99
2023-12-14T15:52:01.107Z,60.92
2023-12-14T15:54:28.926Z,60.26
2023-12-14T15:56:59.641Z,60.51
2023-12-14T15:59:28.583Z,60.25
2023-12-14T16:01:56.754Z,60.02
2023-12-14T16:04:24.617Z,59.63
2023-12-14T16:06:52.774Z,59.44
2023-12-14T16:09:20.648Z,59.69
2023-12-14T16:11:48.508Z,59.33
2023-12-14T16:14:18.653Z,59.49
2023-12-14T16:16:46.528Z,59.71
2023-12-14T16:19:14.429Z,59.34
2023-12-14T16:21:42.448Z,59.32
2023-12-14T16:24:10.261Z,59.50
2023-12-14T16:26:40.566Z,59.45
2023-12-14T16:29:08.822Z,59.28
2023-12-14T16:31:43.565Z,59.36
2023-12-14T16:34:11.679Z,59.31
2023-12-14T16:36:39.644Z,59.93
2023-12-14T16:39:10.752Z,59.44
2023-12-14T16:41:38.718Z,59.80
2023-12-14T16:44:06.877Z,59.48
2023-12-14T16:46:34.889Z,59.57
2023-12-14T16:49:04.611Z,59.74
2023-12-14T16:51:32.908Z,59.59
2023-12-14T16:54:03.405Z,59.52
2023-12-14T16:56:34.354Z,59.36
2023-12-14T16:59:02.097Z,59.49
2023-12-14T17:01:30.188Z,59.16
2023-12-14T17:03:58.417Z,59.46
2023-12-14T17:06:27.636Z,59.30
2023-12-14T17:08:56.644Z,58.78
2023-12-14T17:11:25.028Z,59.49
2023-12-14T17:13:53.242Z,59.37
2023-12-14T17:16:23.500Z,59.51
2023-12-14T17:18:51.421Z,59.20
2023-12-14T17:21:20.334Z,59.23
2023-12-14T17:23:49.976Z,59.24
2023-12-14T17:26:18.071Z,59.72
2023-12-14T17:28:47.241Z,59.46
2023-12-14T17:31:16.731Z,59.26
2023-12-14T17:33:45.360Z,59.36
2023-12-14T17:36:13.445Z,59.36
2023-12-14T17:38:41.637Z,59.60
2023-12-14T17:41:13.552Z,59.59
2023-12-14T17:43:41.801Z,59.90
2023-12-14T17:46:10.056Z,59.97
2023-12-14T17:48:38.268Z,60.00
2023-12-14T17:51:06.820Z,60.15
2023-12-14T17:53:35.222Z,60.20
2023-12-14T17:56:03.704Z,60.00
2023-12-14T17:58:32.996Z,60.21
2023-12-14T18:01:05.599Z,60.25
2023-12-14T18:03:34.697Z,60.17
2023-12-14T18:06:04.164Z,60.24
2023-12-14T18:08:32.221Z,60.41
2023-12-14T18:11:00.197Z,60.11
2023-12-14T18:13:28.298Z,60.22
2023-12-14T18:15:57.915Z,60.38
2023-12-14T18:18:25.928Z,60.65
2023-12-14T18:20:54.969Z,60.15
2023-12-14T18:23:22.923Z,60.61
2023-12-14T18:25:50.851Z,60.44
2023-12-14T18:28:19.720Z,60.49
2023-12-14T18:30:47.918Z,60.69
2023-12-14T18:33:18.131Z,60.68
2023-12-14T18:35:46.056Z,60.82
2023-12-14T18:38:13.877Z,61.15
2023-12-14T18:40:41.721Z,61.04
2023-12-14T18:43:10.478Z,60.93
2023-12-14T18:45:40.045Z,60.78
2023-12-14T18:48:08.248Z,61.18
2023-12-14T18:50:38.244Z,61.03
2023-12-14T18:53:09.980Z,60.96
2023-12-14T18:55:38.277Z,61.09
2023-12-14T18:58:06.984Z,61.47
2023-12-14T19:00:34.842Z,61.21
2023-12-14T19:03:06.041Z,61.22
2023-12-14T19:05:36.773Z,61.20
2023-12-14T19:08:06.358Z,61.18
2023-12-14T19:10:35.339Z,61.15
2023-12-14T19:13:04.068Z,61.27
2023-12-14T19:15:32.795Z,60.98
2023-12-14T19:18:00.899Z,61.24
2023-12-14T19:20:28.969Z,61.13
2023-12-14T19:22:56.993Z,61.56
2023-12-14T19:25:26.198Z,60.99
2023-12-14T19:27:54.172Z,61.26
2023-12-14T19:30:22.840Z,60.69
2023-12-14T19:32:53.208Z,61.05
2023-12-14T19:35:21.343Z,61.17
2023-12-14T19:37:50.109Z,61.24
2023-12-14T19:40:19.053Z,61.10
2023-12-14T19:42:48.410Z,61.11
2023-12-14T19:45:16.306Z,60.97
2023-12-14T19:47:44.300Z,61.11
2023-12-14T19:50:12.911Z,60.94
2023-12-14T19:52:41.762Z,60.95
2023-12-14T19:55:12.667Z,60.89
2023-12-14T19:57:40.660Z,61.17
2023-12-14T20:00:12.239Z,60.97
2023-12-14T20:02:40.470Z,61.12
2023-12-14T20:05:09.279Z,61.26
2023-12-14T20:07:37.425Z,60.98
2023-12-14T20:10:06.328Z,60.97
2023-12-14T20:12:34.163Z,61.05
2023-12-14T20:15:02.033Z,61.04
2023-12-14T20:17:31.708Z,60.89
2023-12-14T20:19:59.992Z,60.96
2023-12-14T20:22:27.806Z,60.77
2023-12-14T20:24:55.650Z,60.56
2023-12-14T20:27:23.484Z,60.93
2023-12-14T20:29:51.303Z,60.65
2023-12-14T20:32:19.363Z,60.65
2023-12-14T20:34:48.646Z,60.89
2023-12-14T20:37:16.457Z,60.91
2023-12-14T20:39:44.329Z,61.07
2023-12-14T20:42:12.132Z,61.19
2023-12-14T20:44:39.960Z,61.70
2023-12-14T20:47:08.066Z,62.31
2023-12-14T20:49:35.912Z,62.38
2023-12-14T20:52:05.540Z,62.37
2023-12-14T20:54:33.186Z,62.78
2023-12-14T20:57:01.048Z,62.91
2023-12-14T20:59:28.934Z,63.09
2023-12-14T21:01:58.108Z,63.21
2023-12-14T21:04:26.131Z,63.58
2023-12-14T21:06:54.203Z,63.65
2023-12-14T21:09:23.596Z,63.96
2023-12-14T21:11:51.503Z,63.90
2023-12-14T21:14:19.373Z,63.59
2023-12-14T21:16:51.893Z,63.83
2023-12-14T21:19:20.245Z,64.19
2023-12-14T21:21:48.880Z,63.94
2023-12-14T21:24:18.730Z,64.33
2023-12-14T21:27:08.889Z,64.32
2023-12-14T21:29:37.101Z,64.54
2023-12-14T21:32:05.528Z,64.47
2023-12-14T21:34:33.683Z,64.80
2023-12-14T21:37:01.560Z,64.83
2023-12-14T21:39:29.452Z,64.78
2023-12-14T21:41:58.679Z,64.91
2023-12-14T21:44:26.701Z,64.85
2023-12-14T21:46:54.772Z,65.13
2023-12-14T21:49:23.168Z,65.10
2023-12-14T21:51:51.090Z,65.03
2023-12-14T21:54:18.978Z,65.29
2023-12-14T21:56:47.037Z,64.93
2023-12-14T21:59:16.520Z,65.13
2023-12-14T22:01:44.450Z,65.16
2023-12-14T22:04:12.301Z,65.44
2023-12-14T22:06:40.183Z,65.21
2023-12-14T22:09:08.185Z,65.25
2023-12-14T22:11:35.983Z,65.32
2023-12-14T22:14:04.335Z,65.22
2023-12-14T22:16:34.405Z,65.24
2023-12-14T22:19:02.503Z,65.35
2023-12-14T22:21:30.663Z,65.50
2023-12-14T22:23:58.525Z,65.26
2023-12-14T22:26:26.423Z,65.31
2023-12-14T22:28:54.389Z,65.62
2023-12-14T22:31:22.288Z,65.31
2023-12-14T22:33:51.629Z,65.50
2023-12-14T22:36:19.950Z,65.73
2023-12-14T22:38:47.776Z,65.85
2023-12-14T22:41:16.542Z,65.97
2023-12-14T22:43:44.910Z,66.12
2023-12-14T22:46:12.810Z,65.88
2023-12-14T22:48:40.773Z,66.21
2023-12-14T22:51:17.232Z,66.01
2023-12-14T22:53:45.393Z,65.46
2023-12-14T22:56:13.384Z,66.21
2023-12-14T22:58:41.249Z,66.87
2023-12-14T23:01:09.086Z,66.53
2023-12-14T23:03:37.006Z,66.45
2023-12-14T23:06:05.292Z,66.56
2023-12-14T23:08:34.516Z,66.76
2023-12-14T23:11:02.486Z,66.60
2023-12-14T23:13:30.340Z,66.52
2023-12-14T23:15:58.154Z,66.59
2023-12-14T23:18:26.037Z,66.80
2023-12-14T23:20:53.917Z,66.48
2023-12-14T23:23:21.741Z,66.87
2023-12-14T23:25:50.960Z,66.99
2023-12-14T23:28:23.010Z,66.99
2023-12-14T23:30:51.017Z,67.09
2023-12-14T23:33:19.091Z,66.95
2023-12-14T23:35:50.777Z,67.25
2023-12-14T23:38:19.205Z,67.40
2023-12-14T23:40:47.584Z,67.74
2023-12-14T23:43:16.829Z,67.55
2023-12-14T23:45:45.805Z,67.61
2023-12-14T23:48:13.878Z,67.34
2023-12-14T23:50:41.716Z,67.35
2023-12-14T23:53:09.844Z,67.37
2023-12-14T23:55:37.977Z,67.25
2023-12-14T23:58:05.786Z,67.27
